Time;durP1;ratioP1;P1;durP2;ratioP2;P2;SDS_P1;SDS_P2;PMS_P1;PMS_P2;Temp;Humidity;BMP_temperature;BMP_pressure;BME280_temperature;BME280_humidity;BME280_pressure;Samples;Min_cycle;Max_cycle;Signal;HPM_P1;HPM_P2
2023/07/06 00:02:03;;;;;;;1.17;0.73;;;21.90;56.00;;;;;;6269928;28;20029;-70
2023/07/06 00:05:04;;;;;;;2.10;0.60;;;21.90;56.00;;;;;;6269622;28;20068;-70
2023/07/06 00:08:05;;;;;;;0.60;0.57;;;21.90;56.00;;;;;;6269418;28;20360;-70
2023/07/06 00:11:06;;;;;;;0.75;0.60;;;21.90;56.00;;;;;;6270111;28;20017;-70
2023/07/06 00:14:09;;;;;;;1.83;0.80;;;21.90;56.10;;;;;;6269494;28;20029;-70
2023/07/06 00:17:12;;;;;;;1.08;0.80;;;21.90;56.10;;;;;;6269846;28;20392;-70
2023/07/06 00:20:13;;;;;;;1.05;0.60;;;21.90;56.20;;;;;;6269409;28;20107;-70
2023/07/06 00:23:15;;;;;;;0.80;0.60;;;21.90;56.20;;;;;;6269221;28;20029;-70
2023/07/06 00:26:16;;;;;;;1.00;0.70;;;21.90;56.20;;;;;;6269462;28;20029;-70
2023/07/06 00:29:17;;;;;;;0.68;0.60;;;21.90;56.20;;;;;;6269463;28;20029;-70
2023/07/06 00:32:26;;;;;;;0.50;0.50;;;21.90;56.20;;;;;;6269080;28;20056;-71
2023/07/06 00:35:27;;;;;;;0.93;0.70;;;21.90;56.20;;;;;;6269200;28;20028;-70
2023/07/06 00:38:27;;;;;;;0.80;0.75;;;21.90;56.20;;;;;;6269288;28;20079;-71
2023/07/06 00:41:29;;;;;;;1.40;0.77;;;21.90;56.30;;;;;;6269089;28;20079;-70
2023/07/06 00:44:57;;;;;;;0.70;0.70;;;21.90;56.30;;;;;;6268976;28;20112;-70
2023/07/06 00:47:59;;;;;;;0.60;0.60;;;21.90;56.40;;;;;;6268949;28;20033;-70
2023/07/06 00:51:27;;;;;;;0.80;0.80;;;21.90;56.40;;;;;;6268923;28;20471;-70
2023/07/06 00:54:28;;;;;;;0.80;0.70;;;21.90;56.40;;;;;;6268720;28;20087;-70
2023/07/06 00:57:32;;;;;;;0.70;0.65;;;21.90;56.50;;;;;;6268318;28;20518;-70
2023/07/06 01:00:34;;;;;;;0.60;0.60;;;21.90;56.50;;;;;;6268467;28;20032;-70
2023/07/06 01:03:44;;;;;;;0.65;0.60;;;21.90;56.50;;;;;;6263857;28;20479;-70
2023/07/06 01:06:49;;;;;;;0.60;0.60;;;21.90;56.50;;;;;;6268573;28;20024;-70
2023/07/06 01:09:52;;;;;;;1.00;0.70;;;21.90;56.50;;;;;;6268165;28;20036;-71
2023/07/06 01:12:53;;;;;;;1.17;0.70;;;21.90;56.60;;;;;;6268610;28;20021;-70
2023/07/06 01:16:04;;;;;;;1.50;1.13;;;21.90;56.60;;;;;;6268233;28;20025;-71
2023/07/06 01:19:06;;;;;;;1.10;0.70;;;21.80;56.60;;;;;;6268391;28;20021;-70
2023/07/06 01:22:40;;;;;;;0.57;0.50;;;21.90;56.60;;;;;;6268275;28;20108;-70
2023/07/06 01:25:53;;;;;;;1.13;0.70;;;21.80;56.70;;;;;;6268057;28;20032;-70
2023/07/06 01:29:11;;;;;;;0.85;0.73;;;21.80;56.70;;;;;;6264581;28;20021;-70
2023/07/06 01:32:21;;;;;;;2.05;0.70;;;21.80;56.80;;;;;;6267946;28;20079;-70
2023/07/06 01:35:27;;;;;;;0.50;0.45;;;21.90;56.80;;;;;;6263245;28;20064;-71
2023/07/06 01:38:27;;;;;;;2.92;0.63;;;21.80;56.80;;;;;;6262122;28;20033;-70
2023/07/06 01:41:28;;;;;;;0.60;0.60;;;21.80;56.80;;;;;;6267959;28;20037;-70
2023/07/06 01:44:29;;;;;;;0.93;0.75;;;21.80;56.80;;;;;;6267539;28;20037;-70
2023/07/06 01:47:32;;;;;;;0.95;0.60;;;21.80;56.80;;;;;;6267640;28;20029;-70
2023/07/06 01:50:48;;;;;;;0.93;0.80;;;21.80;56.90;;;;;;6267157;28;20029;-70
2023/07/06 01:54:03;;;;;;;0.52;0.52;;;21.80;56.90;;;;;;6266851;28;20025;-70
2023/07/06 01:57:13;;;;;;;0.98;0.70;;;21.90;57.00;;;;;;6262752;28;20036;-70
2023/07/06 02:00:18;;;;;;;1.25;0.90;;;21.80;56.90;;;;;;6267725;28;20381;-70
2023/07/06 02:03:20;;;;;;;0.70;0.63;;;21.80;57.00;;;;;;6267916;28;20088;-70
2023/07/06 02:06:21;;;;;;;0.93;0.77;;;21.80;57.00;;;;;;6260843;28;20040;-70
2023/07/06 02:09:22;;;;;;;0.75;0.70;;;21.80;57.00;;;;;;6267558;28;20022;-70
2023/07/06 02:12:23;;;;;;;1.23;0.65;;;21.80;57.10;;;;;;6267830;28;20028;-70
2023/07/06 02:15:24;;;;;;;0.75;0.70;;;21.80;57.20;;;;;;6268835;28;20472;-70
2023/07/06 02:18:25;;;;;;;0.80;0.70;;;21.80;57.20;;;;;;6269284;28;20377;-70
2023/07/06 02:21:25;;;;;;;0.70;0.70;;;21.80;57.20;;;;;;6272208;28;20056;-70
2023/07/06 02:24:26;;;;;;;1.02;0.80;;;21.80;57.30;;;;;;6271656;28;20484;-70
2023/07/06 02:27:26;;;;;;;0.82;0.80;;;21.80;57.30;;;;;;6272005;28;20051;-70
2023/07/06 02:30:28;;;;;;;0.80;0.57;;;21.80;57.30;;;;;;6272339;28;20047;-70
2023/07/06 02:33:30;;;;;;;0.75;0.60;;;21.80;57.30;;;;;;6269283;28;20475;-70
2023/07/06 02:36:31;;;;;;;0.60;0.60;;;21.80;57.30;;;;;;6272276;28;20024;-70
2023/07/06 02:39:31;;;;;;;0.98;0.80;;;21.80;57.30;;;;;;6268546;28;20048;-70
2023/07/06 02:42:34;;;;;;;0.88;0.80;;;21.80;57.30;;;;;;6271969;28;20028;-70
2023/07/06 02:45:36;;;;;;;0.73;0.70;;;21.80;57.40;;;;;;6253599;28;20041;-70
2023/07/06 02:48:36;;;;;;;2.15;0.63;;;21.80;57.40;;;;;;6272077;28;20437;-70
2023/07/06 02:51:37;;;;;;;0.75;0.70;;;21.80;57.40;;;;;;6271393;28;20021;-70
2023/07/06 02:54:38;;;;;;;1.05;0.77;;;21.80;57.40;;;;;;6268363;28;20092;-70
2023/07/06 02:57:39;;;;;;;1.88;0.85;;;21.80;57.40;;;;;;6271763;28;20047;-70
2023/07/06 03:00:40;;;;;;;0.90;0.73;;;21.80;57.50;;;;;;6272171;28;20054;-70
2023/07/06 03:03:40;;;;;;;0.95;0.68;;;21.80;57.40;;;;;;6271341;28;20029;-70
2023/07/06 03:06:41;;;;;;;0.95;0.85;;;21.80;57.50;;;;;;6271255;28;20025;-71
2023/07/06 03:09:42;;;;;;;0.65;0.65;;;21.80;58.20;;;;;;6270966;28;20029;-70
2023/07/06 03:12:43;;;;;;;0.70;0.60;;;21.80;57.50;;;;;;6271183;28;20032;-70
2023/07/06 03:15:50;;;;;;;0.90;0.82;;;21.80;57.50;;;;;;6271320;28;20090;-70
2023/07/06 03:18:51;;;;;;;0.98;0.88;;;21.80;57.50;;;;;;6271201;28;20095;-70
2023/07/06 03:21:58;;;;;;;0.70;0.60;;;21.80;57.50;;;;;;6271244;28;20017;-70
2023/07/06 03:24:59;;;;;;;1.48;0.90;;;21.80;57.50;;;;;;6270902;28;20490;-70
2023/07/06 03:28:00;;;;;;;1.20;0.77;;;21.80;57.60;;;;;;6270420;28;20028;-70
2023/07/06 03:31:00;;;;;;;0.70;0.70;;;21.80;57.60;;;;;;6270527;28;20072;-70
2023/07/06 03:34:06;;;;;;;0.93;0.77;;;21.80;57.60;;;;;;6271084;28;20656;-70
2023/07/06 03:37:06;;;;;;;0.85;0.80;;;21.80;57.60;;;;;;6270517;28;20017;-70
2023/07/06 03:40:14;;;;;;;0.80;0.73;;;21.80;57.60;;;;;;6265028;28;20040;-71
2023/07/06 03:43:15;;;;;;;0.68;0.68;;;21.80;57.60;;;;;;6270580;28;20086;-70
2023/07/06 03:46:16;;;;;;;0.60;0.60;;;21.80;57.60;;;;;;6264349;28;20072;-70
2023/07/06 03:49:18;;;;;;;0.70;0.60;;;21.80;57.70;;;;;;6270358;28;20587;-71
2023/07/06 03:52:19;;;;;;;0.93;0.65;;;21.80;57.70;;;;;;6270595;28;20121;-70
2023/07/06 03:55:24;;;;;;;0.80;0.80;;;21.80;57.70;;;;;;6270859;28;20515;-70
2023/07/06 03:58:24;;;;;;;0.65;0.60;;;21.80;57.70;;;;;;6270180;28;20026;-70
2023/07/06 04:01:31;;;;;;;1.10;0.77;;;21.80;57.80;;;;;;6269977;28;20135;-70
2023/07/06 04:04:33;;;;;;;0.75;0.75;;;21.80;57.70;;;;;;6270612;28;20032;-70
2023/07/06 04:07:33;;;;;;;0.80;0.70;;;21.80;57.70;;;;;;6251902;28;20020;-70
2023/07/06 04:10:36;;;;;;;0.90;0.80;;;21.80;57.80;;;;;;6267093;28;20025;-70
2023/07/06 04:13:36;;;;;;;0.82;0.70;;;21.80;57.70;;;;;;6269986;28;20079;-70
2023/07/06 04:16:40;;;;;;;0.73;0.50;;;21.80;57.80;;;;;;6269979;28;20468;-70
2023/07/06 04:19:41;;;;;;;1.02;0.60;;;21.80;57.70;;;;;;6269928;28;20055;-70
2023/07/06 04:22:41;;;;;;;0.65;0.60;;;21.80;57.70;;;;;;6269563;28;20539;-70
2023/07/06 04:25:42;;;;;;;0.88;0.70;;;21.80;57.80;;;;;;6269717;28;20029;-70
2023/07/06 04:28:43;;;;;;;1.17;0.77;;;21.80;57.80;;;;;;6269638;28;20028;-70
2023/07/06 04:31:46;;;;;;;1.38;1.00;;;21.80;57.80;;;;;;6269615;28;20053;-70
2023/07/06 04:34:46;;;;;;;0.95;0.75;;;21.80;57.80;;;;;;6269449;28;20036;-70
2023/07/06 04:37:49;;;;;;;1.25;0.70;;;21.80;57.80;;;;;;6268843;28;20135;-71
2023/07/06 04:40:51;;;;;;;0.88;0.60;;;21.80;57.70;;;;;;6269276;28;20020;-70
2023/07/06 04:43:52;;;;;;;0.63;0.60;;;21.80;57.80;;;;;;6269238;28;20387;-70
2023/07/06 04:46:53;;;;;;;0.90;0.70;;;21.80;57.80;;;;;;6269072;28;20021;-70
2023/07/06 04:49:54;;;;;;;1.10;0.80;;;21.80;57.80;;;;;;6269142;28;20087;-71
2023/07/06 04:52:57;;;;;;;0.88;0.80;;;21.80;57.80;;;;;;6268956;28;20095;-70
2023/07/06 04:55:59;;;;;;;0.90;0.80;;;21.80;57.80;;;;;;6244361;28;20025;-70
2023/07/06 04:59:00;;;;;;;1.02;0.75;;;21.80;57.80;;;;;;6252150;28;20480;-70
2023/07/06 05:02:02;;;;;;;0.90;0.80;;;21.80;57.80;;;;;;6258591;28;20037;-70
2023/07/06 05:05:02;;;;;;;0.98;0.75;;;21.80;57.80;;;;;;6259813;28;20037;-71
2023/07/06 05:08:05;;;;;;;1.13;0.80;;;21.80;57.80;;;;;;6268318;28;20025;-70
2023/07/06 05:11:05;;;;;;;1.17;0.80;;;21.80;57.80;;;;;;6269204;28;20032;-70
2023/07/06 05:14:06;;;;;;;0.95;0.70;;;21.80;57.80;;;;;;6260916;28;20478;-70
2023/07/06 05:17:07;;;;;;;1.00;0.80;;;21.80;57.80;;;;;;6268466;28;20025;-70
2023/07/06 05:20:14;;;;;;;0.82;0.63;;;21.80;57.80;;;;;;6268177;28;20054;-70
2023/07/06 05:23:15;;;;;;;0.93;0.60;;;21.80;57.90;;;;;;6244025;28;20033;-70
2023/07/06 05:26:17;;;;;;;0.75;0.65;;;21.80;57.90;;;;;;6266806;28;20535;-70
2023/07/06 05:29:17;;;;;;;0.70;0.70;;;21.80;57.90;;;;;;6262470;28;20036;-71
2023/07/06 05:32:18;;;;;;;0.80;0.70;;;21.80;57.90;;;;;;6267930;28;20060;-71
2023/07/06 05:35:23;;;;;;;0.75;0.70;;;21.80;57.90;;;;;;6268009;28;20036;-70
2023/07/06 05:38:25;;;;;;;0.63;0.63;;;21.80;57.90;;;;;;6261362;28;20579;-70
2023/07/06 05:41:25;;;;;;;1.52;0.80;;;21.80;57.90;;;;;;6254317;28;20033;-72
2023/07/06 05:44:27;;;;;;;0.80;0.73;;;21.80;58.00;;;;;;6265426;28;20171;-70
2023/07/06 05:47:28;;;;;;;0.70;0.70;;;21.80;58.00;;;;;;6264845;28;20067;-70
2023/07/06 05:50:28;;;;;;;0.80;0.70;;;21.80;57.90;;;;;;6266327;28;20522;-70
2023/07/06 05:53:29;;;;;;;1.25;0.93;;;21.80;57.90;;;;;;6267175;28;20033;-70
2023/07/06 05:56:31;;;;;;;1.15;0.90;;;21.80;58.00;;;;;;6248652;28;20202;-70
2023/07/06 05:59:31;;;;;;;4.97;1.60;;;21.80;57.90;;;;;;6264696;28;20013;-71
2023/07/06 06:02:32;;;;;;;2.08;1.25;;;21.80;57.70;;;;;;6255089;28;20041;-72
2023/07/06 06:05:34;;;;;;;5.93;1.30;;;21.80;57.60;;;;;;6264363;28;20443;-70
2023/07/06 06:08:34;;;;;;;4.13;1.75;;;21.80;56.30;;;;;;6268845;28;20023;-70
2023/07/06 06:11:35;;;;;;;1.92;1.20;;;21.80;55.90;;;;;;6268684;28;20399;-70
2023/07/06 06:14:36;;;;;;;3.80;1.88;;;21.70;57.20;;;;;;6268530;28;20112;-72
2023/07/06 06:17:40;;;;;;;2.25;1.50;;;21.70;55.70;;;;;;6269022;28;20036;-71
2023/07/06 06:20:44;;;;;;;2.60;1.00;;;21.70;56.80;;;;;;6268526;28;20033;-71
2023/07/06 06:23:45;;;;;;;3.05;1.00;;;21.70;56.90;;;;;;6268619;28;20037;-70
2023/07/06 06:26:45;;;;;;;5.53;1.90;;;21.70;56.50;;;;;;6263715;28;20029;-71
2023/07/06 06:29:46;;;;;;;4.10;1.80;;;21.70;56.30;;;;;;6268414;28;20044;-71
2023/07/06 06:32:48;;;;;;;6.47;2.10;;;21.70;54.80;;;;;;6268420;28;20075;-70
2023/07/06 06:35:50;;;;;;;3.67;1.40;;;21.80;54.80;;;;;;6268105;28;20078;-70
2023/07/06 06:38:51;;;;;;;3.38;1.50;;;21.80;55.80;;;;;;6268406;28;20506;-70
2023/07/06 06:41:52;;;;;;;4.78;2.13;;;21.70;56.30;;;;;;6267938;28;20060;-70
2023/07/06 06:44:52;;;;;;;3.50;1.50;;;21.70;56.40;;;;;;6268387;28;20384;-71
2023/07/06 06:47:53;;;;;;;7.95;1.83;;;21.70;56.20;;;;;;6258757;28;20025;-70
2023/07/06 06:50:56;;;;;;;4.00;1.67;;;21.70;56.40;;;;;;6268145;28;20025;-70
2023/07/06 06:53:56;;;;;;;4.63;1.73;;;21.70;56.10;;;;;;6259173;28;20033;-71
2023/07/06 06:56:58;;;;;;;4.53;1.65;;;21.70;56.80;;;;;;6268003;28;20118;-70
2023/07/06 06:59:59;;;;;;;4.40;1.50;;;21.70;56.20;;;;;;6268998;28;20037;-70
2023/07/06 07:03:00;;;;;;;4.35;1.85;;;21.70;56.70;;;;;;6271312;28;20483;-70
2023/07/06 07:06:11;;;;;;;4.32;1.60;;;21.70;55.40;;;;;;6272617;28;20049;-70
2023/07/06 07:09:13;;;;;;;3.33;1.77;;;21.70;55.60;;;;;;6272421;28;20578;-71
2023/07/06 07:12:13;;;;;;;3.53;1.58;;;21.70;55.30;;;;;;6247376;28;20032;-70
2023/07/06 07:15:14;;;;;;;5.55;2.20;;;21.70;55.50;;;;;;6272580;28;20032;-70
2023/07/06 07:18:15;;;;;;;3.58;1.83;;;21.70;54.40;;;;;;6265344;28;20426;-70
2023/07/06 07:21:19;;;;;;;1.95;1.60;;;21.70;55.20;;;;;;6272258;28;20019;-70
2023/07/06 07:24:19;;;;;;;3.72;1.40;;;21.70;55.40;;;;;;6272284;28;20491;-70
2023/07/06 07:27:20;;;;;;;4.47;1.80;;;21.70;55.00;;;;;;6271934;28;20025;-70
2023/07/06 07:30:21;;;;;;;3.70;1.65;;;21.70;55.40;;;;;;6272927;28;20526;-70
2023/07/06 07:33:22;;;;;;;2.67;1.42;;;21.70;55.80;;;;;;6269230;28;20033;-69
2023/07/06 07:36:23;;;;;;;5.95;1.40;;;21.80;56.10;;;;;;6254104;28;20445;-69
2023/07/06 07:39:23;;;;;;;2.85;1.40;;;21.80;56.40;;;;;;6271420;28;20067;-69
2023/07/06 07:42:25;;;;;;;3.35;1.38;;;21.80;56.40;;;;;;6266712;28;20040;-70
2023/07/06 07:45:26;;;;;;;1.98;1.45;;;21.80;56.60;;;;;;6271979;28;20484;-70
2023/07/06 07:48:27;;;;;;;3.17;1.02;;;21.80;56.70;;;;;;6258831;28;20029;-70
2023/07/06 07:51:28;;;;;;;2.80;1.35;;;21.80;56.80;;;;;;6252368;28;20059;-70
2023/07/06 07:54:29;;;;;;;2.20;1.33;;;21.80;56.80;;;;;;6271376;28;20025;-69
2023/07/06 07:57:30;;;;;;;2.72;1.30;;;21.80;56.90;;;;;;6271163;28;20036;-69
2023/07/06 08:00:31;;;;;;;2.95;1.42;;;21.80;57.00;;;;;;6268922;28;20036;-70
2023/07/06 08:03:33;;;;;;;2.15;1.30;;;21.80;57.10;;;;;;6270856;28;20032;-70
2023/07/06 08:06:34;;;;;;;1.25;1.10;;;21.80;57.10;;;;;;6271902;28;20051;-70
2023/07/06 08:09:34;;;;;;;1.90;1.13;;;21.80;57.20;;;;;;6270784;28;20434;-69
2023/07/06 08:12:36;;;;;;;1.75;1.15;;;21.80;57.90;;;;;;6270100;28;20037;-69
2023/07/06 08:15:39;;;;;;;1.55;1.10;;;21.70;57.20;;;;;;6270887;28;20375;-69
2023/07/06 08:18:41;;;;;;;2.78;1.48;;;21.70;57.30;;;;;;6270456;28;20544;-69
2023/07/06 08:21:41;;;;;;;2.03;1.20;;;21.80;57.30;;;;;;6271038;28;20029;-70
2023/07/06 08:24:42;;;;;;;1.35;0.95;;;21.70;57.30;;;;;;6270425;28;20032;-69
2023/07/06 08:27:42;;;;;;;1.63;1.30;;;21.80;57.40;;;;;;6270313;28;20039;-69
2023/07/06 08:30:43;;;;;;;1.58;1.17;;;21.70;57.40;;;;;;6270611;28;20263;-70
2023/07/06 08:33:46;;;;;;;1.70;1.02;;;21.70;57.30;;;;;;6264469;28;20022;-69
2023/07/06 08:36:46;;;;;;;1.65;1.15;;;21.70;57.40;;;;;;6247822;28;20043;-70
2023/07/06 08:39:47;;;;;;;1.45;1.08;;;21.80;57.40;;;;;;6269996;28;20079;-70
2023/07/06 08:42:48;;;;;;;1.42;0.95;;;21.80;57.50;;;;;;6269774;28;20052;-70
2023/07/06 08:45:53;;;;;;;1.48;1.20;;;21.80;57.50;;;;;;6270358;28;20032;-70
2023/07/06 08:48:54;;;;;;;3.75;1.10;;;21.80;57.50;;;;;;6270229;28;20037;-70
2023/07/06 08:51:55;;;;;;;1.38;0.95;;;21.80;57.60;;;;;;6270920;28;20456;-70
2023/07/06 08:54:57;;;;;;;1.85;1.20;;;21.80;57.60;;;;;;6258200;28;20036;-70
2023/07/06 08:57:57;;;;;;;1.15;1.00;;;21.80;57.60;;;;;;6259498;28;20048;-70
2023/07/06 09:01:10;;;;;;;1.15;0.95;;;21.80;57.60;;;;;;6270089;28;20017;-70
2023/07/06 09:04:16;;;;;;;2.08;1.05;;;21.80;57.60;;;;;;6269744;28;20044;-72
2023/07/06 09:07:21;;;;;;;0.93;0.85;;;21.80;57.70;;;;;;6261025;28;20506;-70
2023/07/06 09:10:25;;;;;;;1.23;0.70;;;21.80;57.70;;;;;;6269199;28;20116;-70
2023/07/06 09:13:27;;;;;;;2.58;0.90;;;21.80;57.70;;;;;;6269286;28;20361;-70
2023/07/06 09:16:28;;;;;;;1.50;1.20;;;21.80;57.70;;;;;;6269812;28;20036;-70
2023/07/06 09:19:32;;;;;;;2.47;1.08;;;21.80;57.80;;;;;;6269317;28;20057;-71
2023/07/06 09:22:32;;;;;;;1.30;1.00;;;21.70;57.70;;;;;;6269606;28;20021;-70
2023/07/06 09:25:36;;;;;;;1.80;1.10;;;21.70;57.70;;;;;;6268987;28;20383;-69
2023/07/06 09:28:36;;;;;;;1.20;0.90;;;21.80;57.80;;;;;;6269036;28;20021;-70
2023/07/06 09:31:37;;;;;;;1.40;0.93;;;21.80;57.90;;;;;;6269339;28;20063;-70
2023/07/06 09:34:44;;;;;;;1.23;0.80;;;21.80;57.90;;;;;;6264693;28;20047;-69
2023/07/06 09:37:47;;;;;;;1.33;1.00;;;21.80;58.20;;;;;;6269226;28;20119;-69
2023/07/06 09:40:49;;;;;;;1.60;1.00;;;21.80;58.00;;;;;;6266354;28;20071;-72
2023/07/06 09:43:58;;;;;;;0.93;0.80;;;21.90;58.40;;;;;;6268234;28;20035;-69
2023/07/06 09:46:59;;;;;;;1.55;1.00;;;21.90;58.00;;;;;;6267883;28;20029;-69
2023/07/06 09:50:11;;;;;;;3.30;0.90;;;21.90;58.00;;;;;;6268512;28;20467;-70
2023/07/06 09:53:26;;;;;;;10.25;1.08;;;21.90;58.00;;;;;;6268733;28;20025;-69
2023/07/06 09:56:29;;;;;;;;;;;21.90;58.10;;;;;;6265653;28;20047;-69
2023/07/06 09:59:29;;;;;;;3.90;1.17;;;21.90;58.10;;;;;;6250510;28;19919;-69
2023/07/06 10:02:53;;;;;;;2.22;1.10;;;21.90;58.10;;;;;;6268227;28;20029;-69
2023/07/06 10:06:19;;;;;;;1.65;1.10;;;21.90;58.10;;;;;;6258559;28;20033;-69
2023/07/06 10:09:28;;;;;;;2.70;1.13;;;21.90;58.10;;;;;;6267596;28;20049;-69
2023/07/06 10:12:44;;;;;;;2.80;0.90;;;21.90;58.20;;;;;;6268849;28;20025;-69
2023/07/06 10:16:22;;;;;;;1.38;1.00;;;21.90;58.10;;;;;;6267829;28;20027;-69
2023/07/06 10:19:38;;;;;;;1.90;1.05;;;21.90;58.10;;;;;;6268054;28;20052;-69
2023/07/06 10:22:40;;;;;;;1.20;0.80;;;21.90;58.10;;;;;;6268188;28;20064;-69
2023/07/06 10:25:57;;;;;;;1.95;1.10;;;21.90;58.10;;;;;;6268464;28;20037;-69
2023/07/06 10:29:16;;;;;;;0.73;0.70;;;21.90;58.10;;;;;;6268416;28;20095;-69
2023/07/06 10:32:26;;;;;;;1.75;1.08;;;21.90;58.10;;;;;;6263485;28;20423;-69
2023/07/06 10:35:33;;;;;;;1.25;0.80;;;21.90;58.20;;;;;;6267544;28;20063;-69
2023/07/06 10:38:34;;;;;;;1.20;1.05;;;21.90;58.20;;;;;;6273339;28;20104;-69
2023/07/06 10:41:44;;;;;;;1.13;0.82;;;21.90;58.10;;;;;;6264509;28;20033;-69
2023/07/06 10:44:49;;;;;;;1.60;0.85;;;21.90;58.10;;;;;;6272313;28;20033;-69
2023/07/06 10:47:50;;;;;;;1.38;0.75;;;21.90;58.10;;;;;;6252802;28;20020;-69
2023/07/06 10:51:04;;;;;;;1.20;0.80;;;21.90;58.20;;;;;;6272587;28;20511;-69
2023/07/06 10:54:11;;;;;;;1.48;0.85;;;21.90;58.20;;;;;;6272691;28;20057;-69
2023/07/06 10:57:11;;;;;;;1.35;0.85;;;21.90;58.20;;;;;;6267888;28;20063;-69
2023/07/06 11:00:16;;;;;;;0.77;0.70;;;21.90;58.20;;;;;;6271860;28;20483;-69
2023/07/06 11:03:22;;;;;;;0.75;0.75;;;21.90;58.20;;;;;;6272717;28;20024;-69
2023/07/06 11:06:41;;;;;;;0.75;0.68;;;21.90;58.20;;;;;;6261566;28;20056;-69
2023/07/06 11:09:49;;;;;;;0.77;0.60;;;21.90;58.20;;;;;;6272105;28;20573;-69
2023/07/06 11:12:57;;;;;;;1.20;0.80;;;21.90;58.20;;;;;;6271977;28;20021;-70
2023/07/06 11:16:04;;;;;;;1.35;0.90;;;21.90;58.20;;;;;;6272253;28;20025;-69
2023/07/06 11:19:07;;;;;;;1.65;0.95;;;21.90;58.20;;;;;;6272766;28;20045;-69
2023/07/06 11:22:16;;;;;;;1.20;0.80;;;21.90;58.20;;;;;;6272401;28;20021;-69
2023/07/06 11:25:19;;;;;;;0.65;0.60;;;21.90;58.20;;;;;;6272394;28;20051;-69
2023/07/06 11:28:23;;;;;;;1.70;0.70;;;21.90;58.20;;;;;;6272599;28;20484;-69
2023/07/06 11:31:24;;;;;;;0.95;0.80;;;21.90;58.20;;;;;;6271523;28;20056;-69
2023/07/06 11:34:46;;;;;;;1.30;0.80;;;21.90;58.20;;;;;;6260564;28;20035;-69
2023/07/06 11:38:05;;;;;;;0.90;0.73;;;21.90;58.30;;;;;;6271556;28;20104;-69
2023/07/06 11:41:53;;;;;;;1.42;0.88;;;21.90;58.20;;;;;;6271484;28;20025;-69
2023/07/06 11:44:55;;;;;;;1.10;0.90;;;21.90;58.20;;;;;;6260785;28;20047;-69
2023/07/06 11:48:13;;;;;;;0.85;0.80;;;21.90;58.30;;;;;;6270460;28;20389;-69
2023/07/06 11:51:15;;;;;;;1.05;0.77;;;21.90;58.30;;;;;;6271570;28;20028;-69
2023/07/06 11:57:54;;;;;;;0.50;0.50;;;21.90;58.30;;;;;;6271629;28;20041;-69
2023/07/06 12:01:00;;;;;;;0.60;0.50;;;21.90;58.30;;;;;;6263416;28;20025;-69
2023/07/06 12:04:04;;;;;;;0.80;0.60;;;21.90;58.30;;;;;;6271072;28;20065;-69
2023/07/06 12:07:24;;;;;;;0.98;0.77;;;21.90;58.20;;;;;;6271447;28;20039;-69
2023/07/06 12:10:26;;;;;;;1.00;0.80;;;21.90;58.20;;;;;;6271013;28;20051;-69
2023/07/06 12:13:28;;;;;;;1.17;0.73;;;21.90;58.20;;;;;;6271211;28;20232;-69
2023/07/06 12:16:39;;;;;;;1.10;0.75;;;21.90;58.30;;;;;;6268960;28;20633;-69
2023/07/06 12:19:41;;;;;;;0.90;0.70;;;21.90;58.30;;;;;;6269369;28;20035;-68
2023/07/06 12:22:53;;;;;;;0.90;0.70;;;21.90;58.30;;;;;;6270531;28;20044;-69
2023/07/06 12:25:56;;;;;;;0.70;0.68;;;21.90;58.30;;;;;;6269974;28;20036;-69
2023/07/06 12:28:58;;;;;;;0.80;0.50;;;21.90;58.40;;;;;;6259439;28;20124;-69
2023/07/06 12:32:08;;;;;;;0.77;0.77;;;21.90;58.30;;;;;;6258783;28;20064;-69
2023/07/06 12:35:11;;;;;;;1.05;0.90;;;21.90;58.30;;;;;;6269449;28;20025;-69
2023/07/06 12:38:15;;;;;;;1.27;0.75;;;21.90;58.30;;;;;;6270167;28;20016;-69
2023/07/06 12:41:21;;;;;;;0.82;0.75;;;21.90;58.30;;;;;;6259270;28;20418;-69
2023/07/06 12:44:26;;;;;;;0.95;0.70;;;21.90;58.30;;;;;;6269086;28;20033;-69
2023/07/06 12:47:37;;;;;;;0.60;0.50;;;21.90;58.30;;;;;;6260638;28;20488;-69
2023/07/06 12:50:41;;;;;;;0.98;0.70;;;21.90;58.30;;;;;;6265889;28;20017;-69
2023/07/06 12:53:42;;;;;;;1.15;0.88;;;21.90;58.30;;;;;;6261256;28;20189;-69
2023/07/06 12:56:44;;;;;;;1.05;0.57;;;21.90;58.30;;;;;;6269210;28;20056;-69
2023/07/06 12:59:57;;;;;;;1.23;0.82;;;21.90;58.30;;;;;;6268563;28;20025;-69
2023/07/06 13:02:58;;;;;;;0.65;0.60;;;21.90;58.30;;;;;;6269181;28;20025;-69
2023/07/06 13:05:59;;;;;;;0.70;0.60;;;21.90;58.40;;;;;;6258962;28;20116;-68
2023/07/06 13:09:01;;;;;;;0.60;0.60;;;21.90;58.40;;;;;;6268891;28;20462;-69
2023/07/06 13:12:09;;;;;;;0.80;0.60;;;21.90;58.40;;;;;;6262623;28;20364;-69
2023/07/06 13:15:21;;;;;;;0.85;0.60;;;21.90;58.40;;;;;;6268676;28;20087;-70
2023/07/06 13:18:22;;;;;;;3.85;0.82;;;21.90;58.40;;;;;;6269431;28;20056;-69
2023/07/06 13:21:26;;;;;;;0.65;0.65;;;21.90;58.40;;;;;;6268724;28;20056;-69
2023/07/06 13:24:28;;;;;;;0.80;0.75;;;21.90;58.40;;;;;;6268472;28;20037;-69
2023/07/06 13:27:29;;;;;;;1.08;0.60;;;21.90;58.40;;;;;;6268965;28;20237;-69
2023/07/06 13:30:29;;;;;;;1.63;0.80;;;21.90;58.40;;;;;;6268007;28;20515;-69
2023/07/06 13:33:31;;;;;;;1.10;0.77;;;21.90;58.40;;;;;;6269189;28;20078;-69
2023/07/06 13:36:32;;;;;;;0.85;0.75;;;21.90;58.40;;;;;;6268636;28;20360;-69
2023/07/06 13:39:32;;;;;;;1.70;1.00;;;21.90;58.50;;;;;;6268389;28;20025;-69
2023/07/06 13:42:33;;;;;;;0.75;0.63;;;21.90;58.50;;;;;;6268403;28;20025;-69
2023/07/06 13:45:40;;;;;;;0.55;0.55;;;21.90;58.50;;;;;;6265321;28;20045;-69
2023/07/06 13:48:43;;;;;;;0.88;0.70;;;21.90;58.50;;;;;;6265334;28;20553;-69
2023/07/06 13:51:44;;;;;;;1.30;0.60;;;21.90;58.50;;;;;;6267326;28;20103;-69
2023/07/06 13:54:45;;;;;;;0.57;0.57;;;21.90;58.50;;;;;;6268233;28;20027;-68
2023/07/06 13:57:46;;;;;;;0.75;0.70;;;21.90;58.50;;;;;;6268458;28;20036;-69
2023/07/06 14:00:47;;;;;;;1.00;0.75;;;21.90;58.50;;;;;;6267988;28;20044;-69
2023/07/06 14:03:48;;;;;;;1.13;0.70;;;21.90;58.50;;;;;;6268351;28;20029;-69
2023/07/06 14:06:49;;;;;;;0.82;0.60;;;21.90;58.50;;;;;;6264962;28;20116;-69
2023/07/06 14:09:50;;;;;;;0.95;0.85;;;21.90;58.50;;;;;;6267232;28;20430;-69
2023/07/06 14:12:52;;;;;;;1.20;0.80;;;21.90;58.50;;;;;;6249597;28;20029;-69
2023/07/06 14:15:53;;;;;;;0.70;0.60;;;21.90;58.50;;;;;;6267737;28;20115;-69
2023/07/06 14:18:54;;;;;;;1.08;0.80;;;21.90;58.50;;;;;;6267915;28;20033;-69
2023/07/06 14:21:54;;;;;;;1.00;0.70;;;21.90;58.50;;;;;;6267142;28;20028;-69
2023/07/06 14:24:55;;;;;;;0.90;0.75;;;21.90;58.50;;;;;;6268331;28;20029;-69
2023/07/06 14:27:56;;;;;;;1.00;0.70;;;21.90;58.50;;;;;;6267707;28;20147;-69
2023/07/06 14:31:05;;;;;;;0.70;0.60;;;21.90;58.50;;;;;;6261245;28;20053;-69
2023/07/06 14:34:07;;;;;;;0.82;0.70;;;21.90;58.50;;;;;;6258274;28;20396;-69
2023/07/06 14:37:07;;;;;;;0.50;0.50;;;21.90;58.50;;;;;;6267229;28;20516;-69
2023/07/06 14:40:10;;;;;;;1.10;0.80;;;21.90;58.50;;;;;;6267273;28;20026;-69
2023/07/06 14:43:10;;;;;;;0.70;0.60;;;21.90;58.50;;;;;;6266868;28;20360;-69
2023/07/06 14:46:11;;;;;;;0.75;0.75;;;21.90;58.50;;;;;;6267477;28;20040;-69
2023/07/06 14:49:12;;;;;;;0.60;0.50;;;21.90;58.50;;;;;;6255870;28;20025;-69
2023/07/06 14:52:13;;;;;;;0.75;0.68;;;21.90;59.20;;;;;;6264178;28;20075;-69
2023/07/06 14:55:14;;;;;;;0.68;0.60;;;21.90;58.50;;;;;;6262546;28;20071;-69
2023/07/06 14:58:14;;;;;;;0.70;0.65;;;21.90;58.60;;;;;;6266922;28;20397;-69
2023/07/06 15:01:15;;;;;;;0.70;0.70;;;21.90;58.60;;;;;;6266657;28;20078;-69
2023/07/06 15:04:15;;;;;;;1.00;0.80;;;21.90;58.50;;;;;;6267547;28;20037;-69
2023/07/06 15:07:16;;;;;;;0.65;0.65;;;21.90;58.60;;;;;;6267288;28;20032;-69
2023/07/06 15:10:17;;;;;;;0.68;0.68;;;21.90;58.60;;;;;;6266880;28;20029;-69
2023/07/06 15:13:18;;;;;;;0.65;0.60;;;21.90;58.50;;;;;;6261704;28;20036;-69
2023/07/06 15:16:18;;;;;;;1.00;0.75;;;21.90;58.40;;;;;;6246111;28;20025;-69
2023/07/06 15:19:19;;;;;;;0.77;0.73;;;22.00;58.40;;;;;;6249003;28;20044;-69
2023/07/06 15:22:20;;;;;;;1.02;0.80;;;21.90;58.20;;;;;;6259131;28;20029;-68
2023/07/06 15:25:20;;;;;;;0.90;0.60;;;22.00;58.60;;;;;;6261641;28;20080;-69
2023/07/06 15:28:21;;;;;;;0.90;0.68;;;21.90;58.50;;;;;;6253874;28;20519;-69
2023/07/06 15:31:25;;;;;;;0.60;0.60;;;22.00;58.60;;;;;;6248794;28;20537;-69
2023/07/06 15:34:26;;;;;;;0.73;0.50;;;22.00;58.60;;;;;;6260715;28;20033;-69
2023/07/06 15:37:26;;;;;;;0.80;0.65;;;22.00;58.60;;;;;;6271224;28;20032;-69
2023/07/06 15:40:27;;;;;;;0.70;0.60;;;21.90;58.50;;;;;;6271196;28;20499;-69
2023/07/06 15:43:28;;;;;;;1.00;0.75;;;21.90;59.20;;;;;;6270544;28;20029;-69
2023/07/06 15:46:38;;;;;;;0.82;0.63;;;21.90;58.50;;;;;;6247204;28;20488;-69
2023/07/06 15:49:38;;;;;;;0.68;0.60;;;21.90;58.60;;;;;;6253751;28;20024;-69
2023/07/06 15:52:39;;;;;;;0.65;0.60;;;21.90;58.60;;;;;;6253627;28;20514;-69
2023/07/06 15:55:40;;;;;;;0.68;0.60;;;21.90;58.50;;;;;;6265029;28;20071;-69
2023/07/06 15:58:40;;;;;;;1.35;0.65;;;21.90;58.60;;;;;;6270844;28;20060;-69
2023/07/06 16:01:41;;;;;;;0.77;0.63;;;21.90;58.60;;;;;;6270574;28;20543;-69